createdAt,value
2024-01-31T00:01:19.869Z,99161.25
2024-01-31T00:03:31.034Z,99153.78
2024-01-31T00:05:39.267Z,99151.94
2024-01-31T00:07:47.630Z,99155.03
2024-01-31T00:09:56.019Z,99165.22
2024-01-31T00:12:04.197Z,99165.63
2024-01-31T00:14:14.760Z,99159.16
2024-01-31T00:16:22.986Z,99149.28
2024-01-31T00:18:34.245Z,99150.97
2024-01-31T00:20:42.566Z,99154.78
2024-01-31T00:22:50.912Z,99147.63
2024-01-31T00:24:59.288Z,99146.75
2024-01-31T00:27:08.256Z,99146.81
2024-01-31T00:29:16.169Z,99144.72
2024-01-31T00:31:24.654Z,99147.69
2024-01-31T00:33:35.758Z,99149.00
2024-01-31T00:35:49.306Z,99143.06
2024-01-31T00:37:57.873Z,99143.66
2024-01-31T00:40:07.262Z,99143.31
2024-01-31T00:42:15.929Z,99141.72
2024-01-31T00:44:24.091Z,99151.13
2024-01-31T00:46:32.601Z,99146.69
2024-01-31T00:48:44.543Z,99151.09
2024-01-31T00:50:52.823Z,99156.16
2024-01-31T00:53:00.911Z,99154.16
2024-01-31T00:55:09.650Z,99152.38
2024-01-31T00:57:17.912Z,99156.81
2024-01-31T00:59:26.388Z,99151.50
2024-01-31T01:01:35.061Z,99157.97
2024-01-31T01:03:45.845Z,99158.78
2024-01-31T01:05:54.226Z,99152.81
2024-01-31T01:08:04.195Z,99164.53
2024-01-31T01:10:13.282Z,99160.56
2024-01-31T01:12:21.348Z,99159.09
2024-01-31T01:14:29.465Z,99157.19
2024-01-31T01:16:37.904Z,99162.19
2024-01-31T01:18:48.927Z,99154.38
2024-01-31T01:20:57.249Z,99152.22
2024-01-31T01:23:05.571Z,99161.31
2024-01-31T01:25:11.176Z,99164.75
2024-01-31T01:27:19.491Z,99165.50
2024-01-31T01:29:27.873Z,99163.97
2024-01-31T01:31:36.175Z,99160.41
2024-01-31T01:33:44.790Z,99168.44
2024-01-31T01:35:55.625Z,99175.47
2024-01-31T01:38:03.727Z,99166.34
2024-01-31T01:40:13.286Z,99168.56
2024-01-31T01:42:22.094Z,99176.94
2024-01-31T01:44:32.642Z,99168.81
2024-01-31T01:46:41.067Z,99164.81
2024-01-31T01:48:50.377Z,99166.09
2024-01-31T01:51:01.192Z,99163.63
2024-01-31T01:53:09.836Z,99157.44
2024-01-31T01:55:18.273Z,99156.44
2024-01-31T01:57:26.944Z,99158.28
2024-01-31T01:59:35.183Z,99161.25
2024-01-31T02:01:45.592Z,99151.81
2024-01-31T02:04:01.465Z,99160.88
2024-01-31T02:06:12.819Z,99155.34
2024-01-31T02:08:21.304Z,99154.66
2024-01-31T02:10:29.512Z,99154.88
2024-01-31T02:12:38.089Z,99148.66
2024-01-31T02:14:44.090Z,99147.28
2024-01-31T02:16:52.751Z,99144.41
2024-01-31T02:19:01.222Z,99148.66
2024-01-31T02:21:12.568Z,99139.16
2024-01-31T02:23:24.486Z,99137.63
2024-01-31T02:25:33.154Z,99140.81
2024-01-31T02:27:42.661Z,99136.69
2024-01-31T02:29:50.876Z,99131.59
2024-01-31T02:31:56.247Z,99133.47
2024-01-31T02:34:04.465Z,99128.38
2024-01-31T02:36:10.132Z,99124.75
2024-01-31T02:38:18.314Z,99120.44
2024-01-31T02:40:30.192Z,99125.66
2024-01-31T02:42:38.172Z,99122.38
2024-01-31T02:44:47.123Z,99127.78
2024-01-31T02:46:55.164Z,99119.69
2024-01-31T02:49:04.163Z,99130.66
2024-01-31T02:51:12.903Z,99133.47
2024-01-31T02:53:21.073Z,99126.00
2024-01-31T02:55:32.216Z,99122.44
2024-01-31T02:57:41.228Z,99125.19
2024-01-31T02:59:50.058Z,99128.56
2024-01-31T03:01:58.761Z,99124.63
2024-01-31T03:04:07.193Z,99121.00
2024-01-31T03:06:15.976Z,99124.81
2024-01-31T03:08:24.123Z,99121.47
2024-01-31T03:10:34.850Z,99117.34
2024-01-31T03:12:40.688Z,99125.09
2024-01-31T03:14:49.043Z,99126.47
2024-01-31T03:16:57.713Z,99123.31
2024-01-31T03:19:05.967Z,99120.16
2024-01-31T03:21:11.487Z,99120.16
2024-01-31T03:23:20.105Z,99105.22
2024-01-31T03:25:25.816Z,99111.38
2024-01-31T03:27:36.796Z,99107.91
2024-01-31T03:29:42.567Z,99105.34
2024-01-31T03:31:51.045Z,99104.72
2024-01-31T03:34:00.183Z,99100.28
2024-01-31T03:36:13.321Z,99101.78
2024-01-31T03:38:21.627Z,99098.34
2024-01-31T03:40:30.161Z,99104.81
2024-01-31T03:42:41.560Z,99103.13
2024-01-31T03:44:49.786Z,99103.09
2024-01-31T03:46:58.256Z,99100.34
2024-01-31T03:49:06.829Z,99102.28
2024-01-31T03:51:22.783Z,99097.78
2024-01-31T03:53:31.557Z,99103.19
2024-01-31T03:55:40.616Z,99105.81
2024-01-31T03:57:51.727Z,99107.28
2024-01-31T03:59:57.308Z,99105.28
2024-01-31T04:02:05.540Z,99106.31
2024-01-31T04:04:13.970Z,99105.72
2024-01-31T04:06:22.634Z,99108.38
2024-01-31T04:08:31.050Z,99111.97
2024-01-31T04:10:39.549Z,99104.91
2024-01-31T04:12:49.325Z,99107.06
2024-01-31T04:15:00.353Z,99110.56
2024-01-31T04:17:08.769Z,99110.56
2024-01-31T04:19:17.305Z,99111.66
2024-01-31T04:21:26.401Z,99108.91
2024-01-31T04:23:34.579Z,99113.19
2024-01-31T04:25:43.180Z,99104.13
2024-01-31T04:27:52.255Z,99102.47
2024-01-31T04:30:03.357Z,99114.53
2024-01-31T04:32:12.106Z,99117.09
2024-01-31T04:34:20.496Z,99118.09
2024-01-31T04:36:28.840Z,99124.13
2024-01-31T04:38:37.502Z,99120.44
2024-01-31T04:40:46.082Z,99114.81
2024-01-31T04:42:54.863Z,99112.84
2024-01-31T04:45:06.717Z,99119.25
2024-01-31T04:47:15.155Z,99131.03
2024-01-31T04:49:20.758Z,99136.41
2024-01-31T04:51:29.553Z,99129.63
2024-01-31T04:53:38.247Z,99137.38
2024-01-31T04:55:49.803Z,99138.59
2024-01-31T04:57:58.170Z,99137.94
2024-01-31T05:00:11.478Z,99139.84
2024-01-31T05:02:17.285Z,99144.50
2024-01-31T05:04:27.153Z,99154.13
2024-01-31T05:06:35.727Z,99158.91
2024-01-31T05:08:44.238Z,99152.47
2024-01-31T05:10:52.819Z,99157.75
2024-01-31T05:13:01.390Z,99151.53
2024-01-31T05:15:13.726Z,99160.28
2024-01-31T05:17:21.883Z,99162.13
2024-01-31T05:19:32.621Z,99163.41
2024-01-31T05:21:40.851Z,99160.63
2024-01-31T05:23:49.256Z,99162.00
2024-01-31T05:25:57.627Z,99164.66
2024-01-31T05:28:06.177Z,99171.84
2024-01-31T05:30:18.296Z,99175.69
2024-01-31T05:32:26.490Z,99176.19
2024-01-31T05:34:35.051Z,99176.03
2024-01-31T05:36:40.964Z,99176.50
2024-01-31T05:38:49.306Z,99172.88
2024-01-31T05:40:57.816Z,99172.94
2024-01-31T05:43:06.620Z,99173.06
2024-01-31T05:45:15.131Z,99182.66
2024-01-31T05:47:23.501Z,99183.91
2024-01-31T05:49:29.195Z,99184.13
2024-01-31T05:51:37.668Z,99191.53
2024-01-31T05:53:45.984Z,99189.94
2024-01-31T05:55:54.486Z,99186.06
2024-01-31T05:58:04.507Z,99189.28
2024-01-31T06:00:18.511Z,99187.28
2024-01-31T06:02:26.814Z,99176.94
2024-01-31T06:04:35.292Z,99179.00
2024-01-31T06:06:44.222Z,99174.47
2024-01-31T06:08:49.917Z,99179.75
2024-01-31T06:11:04.635Z,99174.47
2024-01-31T06:13:13.574Z,99172.06
2024-01-31T06:15:25.765Z,99167.28
2024-01-31T06:17:34.074Z,99172.06
2024-01-31T06:19:44.064Z,99171.81
2024-01-31T06:21:52.389Z,99173.97
2024-01-31T06:24:00.844Z,99169.53
2024-01-31T06:28:40.193Z,99167.94
2024-01-31T06:31:00.752Z,99166.22
2024-01-31T06:33:09.953Z,99166.28
2024-01-31T06:35:18.824Z,99169.88
2024-01-31T06:37:27.200Z,99176.28
2024-01-31T06:39:37.905Z,99180.88
2024-01-31T06:41:47.103Z,99180.06
2024-01-31T06:43:55.673Z,99177.38
2024-01-31T06:46:06.855Z,99181.91
2024-01-31T06:48:15.552Z,99188.31
2024-01-31T06:50:25.092Z,99198.09
2024-01-31T06:52:33.542Z,99195.25
2024-01-31T06:54:41.977Z,99199.66
2024-01-31T06:56:50.512Z,99193.28
2024-01-31T06:58:59.782Z,99191.50
2024-01-31T07:01:11.255Z,99196.03
2024-01-31T07:03:19.660Z,99204.78
2024-01-31T07:05:25.627Z,99214.22
2024-01-31T07:07:34.129Z,99209.06
2024-01-31T07:09:45.161Z,99223.81
2024-01-31T07:11:53.573Z,99216.69
2024-01-31T07:14:01.901Z,99216.78
2024-01-31T07:16:14.338Z,99206.44
2024-01-31T07:18:22.990Z,99199.31
2024-01-31T07:20:31.823Z,99199.91
2024-01-31T07:22:40.393Z,99197.66
2024-01-31T07:24:48.988Z,99200.47
2024-01-31T07:26:57.372Z,99203.13
2024-01-31T07:29:09.635Z,99204.78
2024-01-31T07:31:20.813Z,99208.63
2024-01-31T07:33:29.345Z,99201.50
2024-01-31T07:35:37.782Z,99205.94
2024-01-31T07:37:43.424Z,99203.22
2024-01-31T07:39:51.817Z,99207.25
2024-01-31T07:42:01.403Z,99204.78
2024-01-31T07:44:09.543Z,99198.00
2024-01-31T07:46:22.946Z,99194.63
2024-01-31T07:48:31.370Z,99197.44
2024-01-31T07:50:39.990Z,99192.66
2024-01-31T07:52:48.296Z,99192.47
2024-01-31T07:54:56.744Z,99187.66
2024-01-31T07:57:05.398Z,99196.03
2024-01-31T07:59:13.898Z,99201.34
2024-01-31T08:01:25.242Z,99203.81
2024-01-31T08:03:36.532Z,99193.16
2024-01-31T08:05:45.085Z,99196.84
2024-01-31T08:07:53.384Z,99187.75
2024-01-31T08:09:59.175Z,99188.66
2024-01-31T08:12:08.272Z,99188.47
2024-01-31T08:14:16.844Z,99179.38
2024-01-31T08:16:28.087Z,99186.84
2024-01-31T08:18:36.508Z,99187.13
2024-01-31T08:20:44.979Z,99200.00
2024-01-31T08:22:53.306Z,99204.44
2024-01-31T08:25:01.896Z,99194.28
2024-01-31T08:27:07.641Z,99194.38
2024-01-31T08:29:23.204Z,99186.22
2024-01-31T08:31:38.448Z,99191.75
2024-01-31T08:33:48.958Z,99201.78
2024-01-31T08:35:54.763Z,99192.38
2024-01-31T08:38:04.199Z,99198.63
2024-01-31T08:40:15.468Z,99193.91
2024-01-31T08:42:30.325Z,99190.34
2024-01-31T08:44:38.986Z,99204.25
2024-01-31T08:47:03.276Z,99204.97
2024-01-31T08:49:19.112Z,99203.41
2024-01-31T08:51:24.869Z,99201.56
2024-01-31T08:53:33.600Z,99210.25
2024-01-31T08:55:39.402Z,99207.38
2024-01-31T08:57:47.929Z,99203.25
2024-01-31T08:59:56.921Z,99204.84
2024-01-31T09:02:09.359Z,99209.91
2024-01-31T09:04:15.213Z,99201.03
2024-01-31T09:06:23.638Z,99197.13
2024-01-31T09:08:30.052Z,99195.16
2024-01-31T09:10:59.666Z,99192.44
2024-01-31T09:13:08.376Z,99189.16
2024-01-31T09:15:18.673Z,99195.41
2024-01-31T09:17:29.808Z,99190.16
2024-01-31T09:19:38.121Z,99192.78
2024-01-31T09:21:46.198Z,99192.78
2024-01-31T09:23:55.137Z,99197.88
2024-01-31T09:26:04.567Z,99195.38
2024-01-31T09:28:12.732Z,99204.13
2024-01-31T09:30:20.952Z,99203.16
2024-01-31T09:32:31.902Z,99205.59
2024-01-31T09:34:40.458Z,99206.56
2024-01-31T09:36:49.738Z,99209.47
2024-01-31T09:38:59.139Z,99210.56
2024-01-31T09:41:07.869Z,99199.03
2024-01-31T09:43:19.669Z,99193.94
2024-01-31T09:45:30.856Z,99199.47
2024-01-31T09:47:43.805Z,99189.41
2024-01-31T09:49:54.173Z,99188.91
2024-01-31T09:52:03.643Z,99187.75
2024-01-31T09:54:13.288Z,99202.03
2024-01-31T09:56:22.136Z,99197.59
2024-01-31T09:58:30.284Z,99204.19
2024-01-31T10:00:38.819Z,99199.50
2024-01-31T10:02:52.287Z,99197.75
2024-01-31T10:05:03.351Z,99195.59
2024-01-31T10:07:11.608Z,99195.22
2024-01-31T10:09:19.835Z,99196.09
2024-01-31T10:11:30.395Z,99187.88
2024-01-31T10:13:40.743Z,99186.19
2024-01-31T10:15:48.997Z,99183.97
2024-01-31T10:18:01.150Z,99192.00
2024-01-31T10:20:13.130Z,99185.50
2024-01-31T10:22:22.081Z,99194.78
2024-01-31T10:24:30.639Z,99194.16
2024-01-31T10:26:39.685Z,99186.88
2024-01-31T10:28:51.188Z,99185.72
2024-01-31T10:31:02.314Z,99179.00
2024-01-31T10:33:17.308Z,99168.78
2024-01-31T10:35:44.552Z,99171.00
2024-01-31T10:37:58.035Z,99170.50
2024-01-31T10:40:11.392Z,99173.25
2024-01-31T10:42:23.146Z,99166.06
2024-01-31T10:44:31.962Z,99164.47
2024-01-31T10:46:49.363Z,99154.53
2024-01-31T10:49:00.544Z,99154.00
2024-01-31T10:51:13.881Z,99154.22
2024-01-31T10:53:26.859Z,99151.09
2024-01-31T10:55:37.132Z,99151.00
2024-01-31T10:57:46.108Z,99148.00
2024-01-31T10:59:54.556Z,99148.69
2024-01-31T11:02:03.113Z,99151.16
2024-01-31T11:04:17.804Z,99144.16
2024-01-31T11:06:28.088Z,99145.09
2024-01-31T11:08:39.422Z,99144.63
2024-01-31T11:10:47.708Z,99148.41
2024-01-31T11:13:04.232Z,99146.19
2024-01-31T11:15:13.638Z,99146.59
2024-01-31T11:17:28.548Z,99140.06
2024-01-31T11:19:41.448Z,99139.59
2024-01-31T11:21:49.636Z,99129.66
2024-01-31T11:23:55.326Z,99127.50
2024-01-31T11:26:05.466Z,99125.19
2024-01-31T11:28:15.270Z,99112.31
2024-01-31T11:30:24.429Z,99118.16
2024-01-31T11:32:34.486Z,99115.25
2024-01-31T11:34:46.546Z,99112.69
2024-01-31T11:36:54.752Z,99110.53
2024-01-31T11:39:03.039Z,99105.41
2024-01-31T11:41:11.348Z,99099.84
2024-01-31T11:43:20.230Z,99097.16
2024-01-31T11:45:29.251Z,99094.59
2024-01-31T11:47:38.425Z,99093.22
2024-01-31T11:49:49.585Z,99097.94
2024-01-31T11:51:57.637Z,99084.50
2024-01-31T11:54:07.054Z,99086.47
2024-01-31T11:56:17.769Z,99084.03
2024-01-31T11:58:27.287Z,99084.06
2024-01-31T12:00:36.241Z,99083.06
2024-01-31T12:02:45.429Z,99085.66
2024-01-31T12:05:01.858Z,99082.88
2024-01-31T12:07:11.106Z,99092.44
2024-01-31T12:09:20.368Z,99089.41
2024-01-31T12:11:30.086Z,99088.56
2024-01-31T12:13:38.317Z,99075.25
2024-01-31T12:15:47.921Z,99079.00
2024-01-31T12:17:56.888Z,99080.03
2024-01-31T12:20:13.727Z,99074.84
2024-01-31T12:22:22.411Z,99085.63
2024-01-31T12:24:32.288Z,99079.38
2024-01-31T12:26:41.517Z,99077.78
2024-01-31T12:28:55.287Z,99083.53
2024-01-31T12:31:03.465Z,99087.47
2024-01-31T12:33:11.783Z,99080.06
2024-01-31T12:35:24.305Z,99075.25
2024-01-31T12:37:33.406Z,99067.59
2024-01-31T12:39:41.710Z,99066.25
2024-01-31T12:41:51.492Z,99064.66
2024-01-31T12:44:00.088Z,99073.13
2024-01-31T12:46:08.777Z,99064.38
2024-01-31T12:48:17.525Z,99071.03
2024-01-31T12:50:28.347Z,99077.09
2024-01-31T12:52:38.359Z,99072.72
2024-01-31T12:54:46.417Z,99069.44
2024-01-31T12:56:54.534Z,99070.59
2024-01-31T12:59:02.738Z,99072.22
2024-01-31T13:01:11.195Z,99078.00
2024-01-31T13:03:16.806Z,99074.78
2024-01-31T13:05:29.680Z,99069.81
2024-01-31T13:07:38.511Z,99074.84
2024-01-31T13:09:46.737Z,99073.25
2024-01-31T13:11:54.837Z,99074.94
2024-01-31T13:14:00.520Z,99068.34
2024-01-31T13:16:09.664Z,99064.50
2024-01-31T13:18:18.094Z,99067.47
2024-01-31T13:20:28.983Z,99062.50
2024-01-31T13:22:38.066Z,99064.63
2024-01-31T13:24:48.443Z,99062.28
2024-01-31T13:26:57.465Z,99061.97
2024-01-31T13:29:05.611Z,99055.44
2024-01-31T13:31:14.822Z,99048.00
2024-01-31T13:33:23.029Z,99055.97
2024-01-31T13:35:33.714Z,99053.41
2024-01-31T13:37:42.177Z,99048.31
2024-01-31T13:39:52.139Z,99042.88
2024-01-31T13:42:03.677Z,99037.09
2024-01-31T13:44:12.115Z,99033.88
2024-01-31T13:46:21.484Z,99030.69
2024-01-31T13:48:32.677Z,99036.94
2024-01-31T13:50:47.150Z,99024.91
2024-01-31T13:52:59.399Z,99031.72
2024-01-31T13:55:16.499Z,99033.13
2024-01-31T13:57:29.904Z,99024.41
2024-01-31T13:59:40.752Z,99013.72
2024-01-31T14:01:50.469Z,99020.88
2024-01-31T14:03:59.262Z,99025.72
2024-01-31T14:06:12.240Z,99028.47
2024-01-31T14:08:20.370Z,99022.75
2024-01-31T14:10:28.539Z,99025.75
2024-01-31T14:12:38.126Z,99010.28
2024-01-31T14:14:46.418Z,99006.22
2024-01-31T14:16:57.551Z,99001.69
2024-01-31T14:19:07.306Z,98997.13
2024-01-31T14:21:20.619Z,99001.31
2024-01-31T14:25:40.288Z,98987.47
2024-01-31T14:27:54.028Z,98990.56
2024-01-31T14:30:05.022Z,98992.53
2024-01-31T14:32:14.246Z,98992.00
2024-01-31T14:34:25.070Z,98997.31
2024-01-31T14:36:35.712Z,98988.59
2024-01-31T14:38:43.981Z,98980.31
2024-01-31T14:40:49.502Z,98978.22
2024-01-31T14:42:57.909Z,98981.13
2024-01-31T14:45:06.016Z,98988.97
2024-01-31T14:47:16.778Z,98980.41
2024-01-31T14:49:28.137Z,98979.94
2024-01-31T14:51:38.844Z,98982.50
2024-01-31T14:53:48.125Z,98977.88
2024-01-31T14:56:00.933Z,98974.34
2024-01-31T14:58:09.065Z,98972.00
2024-01-31T15:00:20.036Z,98971.53
2024-01-31T15:02:28.480Z,98972.84
2024-01-31T15:04:38.736Z,98971.59
2024-01-31T15:06:52.523Z,98975.97
2024-01-31T15:09:01.246Z,98975.47
2024-01-31T15:11:15.634Z,98969.59
2024-01-31T15:13:24.352Z,98975.38
2024-01-31T15:15:32.736Z,98976.59
2024-01-31T15:17:41.370Z,98982.88
2024-01-31T15:19:51.793Z,98975.78
2024-01-31T15:22:02.693Z,98972.66
2024-01-31T15:24:13.402Z,98967.41
2024-01-31T15:26:21.649Z,98956.88
2024-01-31T15:28:29.794Z,98959.44
2024-01-31T15:30:38.320Z,98956.69
2024-01-31T15:32:47.161Z,98962.78
2024-01-31T15:34:57.295Z,98959.91
2024-01-31T15:37:08.121Z,98953.34
2024-01-31T15:39:16.466Z,98940.47
2024-01-31T15:41:25.109Z,98941.00
2024-01-31T15:43:30.690Z,98936.75
2024-01-31T15:45:38.978Z,98934.72
2024-01-31T15:47:47.664Z,98930.97
2024-01-31T15:49:56.257Z,98934.66
2024-01-31T15:52:04.629Z,98946.41
2024-01-31T15:54:17.061Z,98934.97
2024-01-31T15:56:25.771Z,98932.06
2024-01-31T15:58:36.152Z,98939.00
2024-01-31T16:00:44.470Z,98944.47
2024-01-31T16:02:53.297Z,98940.09
2024-01-31T16:05:01.692Z,98935.97
2024-01-31T16:07:10.284Z,98941.53
2024-01-31T16:09:21.702Z,98933.00
2024-01-31T16:11:30.203Z,98928.03
2024-01-31T16:13:38.996Z,98932.00
2024-01-31T16:15:50.797Z,98931.34
2024-01-31T16:17:59.378Z,98916.84
2024-01-31T16:20:10.904Z,98919.91
2024-01-31T16:22:20.564Z,98920.31
2024-01-31T16:24:31.704Z,98903.94
2024-01-31T16:26:42.818Z,98904.81
2024-01-31T16:28:51.294Z,98909.38
2024-01-31T16:30:58.386Z,98906.47
2024-01-31T16:33:07.046Z,98910.47
2024-01-31T16:35:15.951Z,98907.97
2024-01-31T16:37:24.306Z,98907.50
2024-01-31T16:39:35.377Z,98906.78
2024-01-31T16:41:41.444Z,98904.38
2024-01-31T16:43:49.948Z,98905.44
2024-01-31T16:45:58.233Z,98897.56
2024-01-31T16:48:09.476Z,98894.94
2024-01-31T16:50:18.192Z,98888.72
2024-01-31T16:52:26.562Z,98891.38
2024-01-31T16:54:37.642Z,98893.09
2024-01-31T16:56:46.102Z,98895.56
2024-01-31T16:58:54.669Z,98900.88
2024-01-31T17:01:04.870Z,98897.28
2024-01-31T17:03:13.270Z,98893.75
2024-01-31T17:05:21.741Z,98883.19
2024-01-31T17:07:31.302Z,98886.06
2024-01-31T17:09:42.357Z,98893.44
2024-01-31T17:11:50.701Z,98897.28
2024-01-31T17:13:59.144Z,98891.22
2024-01-31T17:16:08.397Z,98894.06
2024-01-31T17:18:21.364Z,98888.91
2024-01-31T17:20:30.715Z,98881.44
2024-01-31T17:22:39.311Z,98880.72
2024-01-31T17:24:50.900Z,98877.00
2024-01-31T17:26:59.592Z,98884.38
2024-01-31T17:29:08.031Z,98876.72
2024-01-31T17:31:16.383Z,98870.06
2024-01-31T17:33:24.601Z,98854.41
2024-01-31T17:35:33.147Z,98863.72
2024-01-31T17:37:42.341Z,98848.44
2024-01-31T17:39:53.825Z,98850.56
2024-01-31T17:42:02.455Z,98853.88
2024-01-31T17:44:10.632Z,98849.91
2024-01-31T17:46:28.004Z,98844.25
2024-01-31T17:48:36.544Z,98843.53
2024-01-31T17:50:46.184Z,98833.59
2024-01-31T17:52:55.158Z,98840.75
2024-01-31T17:55:06.640Z,98838.78
2024-01-31T17:57:15.769Z,98830.63
2024-01-31T17:59:25.342Z,98837.59
2024-01-31T18:01:31.015Z,98837.72
2024-01-31T18:03:40.116Z,98842.47
2024-01-31T18:05:53.414Z,98850.00
2024-01-31T18:08:02.109Z,98856.59
2024-01-31T18:10:14.495Z,98846.09
2024-01-31T18:12:28.180Z,98847.75
2024-01-31T18:14:38.671Z,98835.09
2024-01-31T18:16:47.459Z,98849.34
2024-01-31T18:19:03.621Z,98847.56
2024-01-31T18:21:12.576Z,98844.84
2024-01-31T18:23:21.342Z,98857.97
2024-01-31T18:25:32.805Z,98859.25
2024-01-31T18:27:42.543Z,98861.16
2024-01-31T18:29:53.382Z,98868.75
2024-01-31T18:32:03.950Z,98852.88
2024-01-31T18:34:12.866Z,98863.34
2024-01-31T18:36:21.765Z,98847.41
2024-01-31T18:38:30.324Z,98841.97
2024-01-31T18:40:41.232Z,98841.22
2024-01-31T18:42:49.870Z,98832.03
2024-01-31T18:44:58.294Z,98827.78
2024-01-31T18:47:06.836Z,98825.00
2024-01-31T18:49:19.047Z,98814.25
2024-01-31T18:51:27.857Z,98804.16
2024-01-31T18:53:37.766Z,98785.56
2024-01-31T18:55:49.294Z,98788.47
2024-01-31T18:57:57.557Z,98779.94
2024-01-31T19:00:06.495Z,98777.50
2024-01-31T19:02:18.195Z,98778.31
2024-01-31T19:04:26.692Z,98781.41
2024-01-31T19:06:35.049Z,98774.50
2024-01-31T19:08:43.552Z,98763.13
2024-01-31T19:10:54.517Z,98752.38
2024-01-31T19:13:03.216Z,98751.09
2024-01-31T19:15:14.763Z,98739.28
2024-01-31T19:17:27.890Z,98733.09
2024-01-31T19:19:39.710Z,98731.22
2024-01-31T19:21:48.335Z,98720.59
2024-01-31T19:23:56.862Z,98723.16
2024-01-31T19:26:08.172Z,98732.47
2024-01-31T19:28:17.997Z,98728.88
2024-01-31T19:30:27.668Z,98730.19
2024-01-31T19:32:38.419Z,98727.38
2024-01-31T19:34:48.431Z,98732.41
2024-01-31T19:36:56.980Z,98732.13
2024-01-31T19:39:02.766Z,98732.69
2024-01-31T19:41:13.774Z,98741.38
2024-01-31T19:43:22.497Z,98757.13
2024-01-31T19:45:31.076Z,98771.28
2024-01-31T19:47:39.531Z,98783.59
2024-01-31T19:49:47.759Z,98786.19
2024-01-31T19:51:57.440Z,98800.53
2024-01-31T19:54:05.938Z,98812.28
2024-01-31T19:56:17.284Z,98823.06
2024-01-31T19:58:25.719Z,98822.03
2024-01-31T20:00:34.206Z,98840.72
2024-01-31T20:02:42.885Z,98837.50
2024-01-31T20:04:51.449Z,98844.63
2024-01-31T20:07:00.037Z,98836.59
2024-01-31T20:09:10.417Z,98837.38
2024-01-31T20:11:21.598Z,98831.00
2024-01-31T20:13:27.185Z,98841.88
2024-01-31T20:15:35.554Z,98842.72
2024-01-31T20:17:44.465Z,98843.59
2024-01-31T20:19:52.885Z,98848.09
2024-01-31T20:22:01.850Z,98852.22
2024-01-31T20:24:10.512Z,98856.59
2024-01-31T20:26:22.045Z,98849.13
2024-01-31T20:28:27.748Z,98851.41
2024-01-31T20:30:36.621Z,98858.38
2024-01-31T20:32:45.185Z,98864.16
2024-01-31T20:34:53.981Z,98874.81
2024-01-31T20:37:02.427Z,98869.97
2024-01-31T20:39:18.264Z,98876.06
2024-01-31T20:41:32.778Z,98874.16
2024-01-31T20:43:41.254Z,98876.19
2024-01-31T20:45:53.421Z,98869.63
2024-01-31T20:48:01.745Z,98877.78
2024-01-31T20:50:09.377Z,98878.63
2024-01-31T20:52:19.182Z,98871.84
2024-01-31T20:54:27.162Z,98864.66
2024-01-31T20:56:38.464Z,98865.28
2024-01-31T20:58:46.731Z,98859.88
2024-01-31T21:00:58.899Z,98873.00
2024-01-31T21:03:08.656Z,98878.91
2024-01-31T21:05:17.584Z,98876.00
2024-01-31T21:07:28.678Z,98883.38
2024-01-31T21:09:34.520Z,98878.66
2024-01-31T21:11:45.526Z,98871.75
2024-01-31T21:13:53.853Z,98862.28
2024-01-31T21:16:00.740Z,98858.91
2024-01-31T21:18:14.607Z,98850.69
2024-01-31T21:20:23.408Z,98851.19
2024-01-31T21:22:31.678Z,98845.06
2024-01-31T21:24:40.205Z,98841.38
2024-01-31T21:26:51.272Z,98836.75
2024-01-31T21:29:01.591Z,98842.63
2024-01-31T21:31:11.052Z,98829.25
2024-01-31T21:33:20.826Z,98827.78
2024-01-31T21:35:26.538Z,98830.00
2024-01-31T21:37:34.672Z,98820.34
2024-01-31T21:39:45.882Z,98813.34
2024-01-31T21:42:00.051Z,98820.69
2024-01-31T21:44:09.730Z,98810.59
2024-01-31T21:46:18.656Z,98814.69
2024-01-31T21:48:30.176Z,98809.69
2024-01-31T21:50:38.714Z,98793.72
2024-01-31T21:52:46.843Z,98794.19
2024-01-31T21:54:54.849Z,98784.53
2024-01-31T21:57:09.015Z,98787.94
2024-01-31T21:59:17.155Z,98778.13
2024-01-31T22:01:25.613Z,98779.31
2024-01-31T22:03:46.277Z,98775.78
2024-01-31T22:06:02.094Z,98770.00
2024-01-31T22:08:13.908Z,98771.59
2024-01-31T22:10:24.736Z,98765.25
2024-01-31T22:12:35.639Z,98776.31
2024-01-31T22:14:49.093Z,98770.25
2024-01-31T22:16:57.400Z,98761.97
2024-01-31T22:19:08.519Z,98772.28
2024-01-31T22:21:15.112Z,98772.03
2024-01-31T22:23:24.554Z,98769.19
2024-01-31T22:25:32.867Z,98771.50
2024-01-31T22:27:43.718Z,98767.47
2024-01-31T22:29:51.992Z,98774.41
2024-01-31T22:32:06.215Z,98764.38
2024-01-31T22:34:17.851Z,98756.53
2024-01-31T22:36:26.330Z,98758.13
2024-01-31T22:38:34.936Z,98761.28
2024-01-31T22:40:43.874Z,98760.31
2024-01-31T22:42:55.053Z,98756.66
2024-01-31T22:45:03.395Z,98763.38
2024-01-31T22:47:11.746Z,98758.81
2024-01-31T22:49:20.128Z,98761.66
2024-01-31T22:51:28.730Z,98759.97
2024-01-31T22:53:36.996Z,98755.59
2024-01-31T22:55:49.417Z,98763.75
2024-01-31T22:58:00.424Z,98759.06
2024-01-31T23:00:11.230Z,98752.31
2024-01-31T23:02:22.383Z,98753.09
2024-01-31T23:04:30.748Z,98757.22
2024-01-31T23:06:39.234Z,98758.88
2024-01-31T23:08:48.687Z,98759.47
2024-01-31T23:10:57.047Z,98764.06
2024-01-31T23:13:05.355Z,98757.69
2024-01-31T23:15:14.727Z,98756.38
2024-01-31T23:17:23.837Z,98751.94
2024-01-31T23:19:32.531Z,98749.97
2024-01-31T23:21:43.211Z,98741.41
2024-01-31T23:23:52.589Z,98736.88
2024-01-31T23:25:58.173Z,98735.63
2024-01-31T23:28:09.559Z,98738.91
2024-01-31T23:30:19.033Z,98738.50
2024-01-31T23:32:27.110Z,98734.97
2024-01-31T23:34:32.584Z,98737.75
2024-01-31T23:36:40.865Z,98732.31
2024-01-31T23:38:49.707Z,98725.44
2024-01-31T23:40:57.844Z,98718.94
2024-01-31T23:43:08.859Z,98718.59
2024-01-31T23:45:17.187Z,98724.38
2024-01-31T23:47:25.598Z,98725.84
2024-01-31T23:49:34.239Z,98740.56
2024-01-31T23:51:42.562Z,98735.34
2024-01-31T23:53:51.192Z,98725.78
2024-01-31T23:56:01.092Z,98718.94
2024-01-31T23:58:12.090Z,98716.56
